sensor_id;sensor_type;location;lat;lon;timestamp;P1;durP1;ratioP1;P2;durP2;ratioP2
26920;SDS011;14483;47.844;9.660;2024-01-25T00:01:44;5.75;;;1.25;;
26920;SDS011;14483;47.844;9.660;2024-01-25T00:04:12;4.50;;;0.95;;
26920;SDS011;14483;47.844;9.660;2024-01-25T00:06:38;7.25;;;0.75;;
26920;SDS011;14483;47.844;9.660;2024-01-25T00:09:05;2.90;;;0.80;;
26920;SDS011;14483;47.844;9.660;2024-01-25T00:11:31;4.85;;;0.90;;
26920;SDS011;14483;47.844;9.660;2024-01-25T00:13:58;3.67;;;0.68;;
26920;SDS011;14483;47.844;9.660;2024-01-25T00:16:25;6.95;;;0.90;;
26920;SDS011;14483;47.844;9.660;2024-01-25T00:18:51;2.35;;;0.70;;
26920;SDS011;14483;47.844;9.660;2024-01-25T00:21:19;2.90;;;0.47;;
26920;SDS011;14483;47.844;9.660;2024-01-25T00:23:45;1.67;;;0.60;;
26920;SDS011;14483;47.844;9.660;2024-01-25T00:26:12;4.82;;;0.68;;
26920;SDS011;14483;47.844;9.660;2024-01-25T00:28:39;5.35;;;0.82;;
26920;SDS011;14483;47.844;9.660;2024-01-25T00:31:05;1.33;;;0.60;;
26920;SDS011;14483;47.844;9.660;2024-01-25T00:33:31;2.22;;;0.40;;
26920;SDS011;14483;47.844;9.660;2024-01-25T00:35:58;0.68;;;0.30;;
26920;SDS011;14483;47.844;9.660;2024-01-25T00:38:26;0.93;;;0.25;;
26920;SDS011;14483;47.844;9.660;2024-01-25T00:40:52;2.05;;;0.57;;
26920;SDS011;14483;47.844;9.660;2024-01-25T00:43:19;1.00;;;0.40;;
26920;SDS011;14483;47.844;9.660;2024-01-25T00:45:46;0.55;;;0.22;;
26920;SDS011;14483;47.844;9.660;2024-01-25T00:48:12;1.48;;;0.65;;
26920;SDS011;14483;47.844;9.660;2024-01-25T00:50:39;1.25;;;0.30;;
26920;SDS011;14483;47.844;9.660;2024-01-25T00:53:06;0.32;;;0.20;;
26920;SDS011;14483;47.844;9.660;2024-01-25T00:55:34;0.90;;;0.30;;
26920;SDS011;14483;47.844;9.660;2024-01-25T00:58:00;0.73;;;0.30;;
26920;SDS011;14483;47.844;9.660;2024-01-25T01:00:27;0.28;;;0.20;;
26920;SDS011;14483;47.844;9.660;2024-01-25T01:02:54;0.95;;;0.30;;
26920;SDS011;14483;47.844;9.660;2024-01-25T01:05:23;1.55;;;0.30;;
26920;SDS011;14483;47.844;9.660;2024-01-25T01:07:50;0.30;;;0.20;;
26920;SDS011;14483;47.844;9.660;2024-01-25T01:10:16;1.50;;;0.20;;
26920;SDS011;14483;47.844;9.660;2024-01-25T01:12:44;3.40;;;0.70;;
26920;SDS011;14483;47.844;9.660;2024-01-25T01:15:11;1.10;;;0.22;;
26920;SDS011;14483;47.844;9.660;2024-01-25T01:17:37;1.25;;;0.40;;
26920;SDS011;14483;47.844;9.660;2024-01-25T01:20:03;1.60;;;0.20;;
26920;SDS011;14483;47.844;9.660;2024-01-25T01:22:30;1.45;;;0.30;;
26920;SDS011;14483;47.844;9.660;2024-01-25T01:24:56;3.63;;;0.20;;
26920;SDS011;14483;47.844;9.660;2024-01-25T01:27:23;0.95;;;0.50;;
26920;SDS011;14483;47.844;9.660;2024-01-25T01:29:50;3.45;;;0.20;;
26920;SDS011;14483;47.844;9.660;2024-01-25T01:32:17;0.90;;;0.22;;
26920;SDS011;14483;47.844;9.660;2024-01-25T01:34:43;0.20;;;0.17;;
26920;SDS011;14483;47.844;9.660;2024-01-25T01:37:10;0.40;;;0.20;;
26920;SDS011;14483;47.844;9.660;2024-01-25T01:39:36;1.35;;;0.22;;
26920;SDS011;14483;47.844;9.660;2024-01-25T01:42:03;2.72;;;0.30;;
26920;SDS011;14483;47.844;9.660;2024-01-25T01:44:29;0.30;;;0.20;;
26920;SDS011;14483;47.844;9.660;2024-01-25T01:46:57;0.40;;;0.10;;
26920;SDS011;14483;47.844;9.660;2024-01-25T01:49:23;4.22;;;0.30;;
26920;SDS011;14483;47.844;9.660;2024-01-25T01:51:50;4.03;;;0.40;;
26920;SDS011;14483;47.844;9.660;2024-01-25T01:54:16;0.93;;;0.22;;
26920;SDS011;14483;47.844;9.660;2024-01-25T01:56:43;1.02;;;0.22;;
26920;SDS011;14483;47.844;9.660;2024-01-25T01:59:10;1.65;;;0.85;;
26920;SDS011;14483;47.844;9.660;2024-01-25T02:01:37;1.55;;;0.50;;
26920;SDS011;14483;47.844;9.660;2024-01-25T02:04:05;1.85;;;0.30;;
26920;SDS011;14483;47.844;9.660;2024-01-25T02:06:31;1.75;;;0.25;;
26920;SDS011;14483;47.844;9.660;2024-01-25T02:08:58;2.15;;;0.20;;
26920;SDS011;14483;47.844;9.660;2024-01-25T02:11:24;3.35;;;0.20;;
26920;SDS011;14483;47.844;9.660;2024-01-25T02:13:51;1.55;;;0.40;;
26920;SDS011;14483;47.844;9.660;2024-01-25T02:16:17;1.05;;;0.30;;
26920;SDS011;14483;47.844;9.660;2024-01-25T02:18:45;1.40;;;0.35;;
26920;SDS011;14483;47.844;9.660;2024-01-25T02:21:12;3.45;;;0.30;;
26920;SDS011;14483;47.844;9.660;2024-01-25T02:23:40;1.20;;;0.20;;
26920;SDS011;14483;47.844;9.660;2024-01-25T02:26:07;1.58;;;0.20;;
26920;SDS011;14483;47.844;9.660;2024-01-25T02:28:33;1.98;;;0.30;;
26920;SDS011;14483;47.844;9.660;2024-01-25T02:31:00;1.70;;;0.40;;
26920;SDS011;14483;47.844;9.660;2024-01-25T02:33:27;1.90;;;0.28;;
26920;SDS011;14483;47.844;9.660;2024-01-25T02:35:53;1.08;;;0.20;;
26920;SDS011;14483;47.844;9.660;2024-01-25T02:38:20;1.15;;;0.20;;
26920;SDS011;14483;47.844;9.660;2024-01-25T02:40:47;1.23;;;0.20;;
26920;SDS011;14483;47.844;9.660;2024-01-25T02:43:14;1.20;;;0.30;;
26920;SDS011;14483;47.844;9.660;2024-01-25T02:45:40;2.20;;;0.40;;
26920;SDS011;14483;47.844;9.660;2024-01-25T02:48:06;0.98;;;0.22;;
26920;SDS011;14483;47.844;9.660;2024-01-25T02:50:33;2.60;;;0.30;;
26920;SDS011;14483;47.844;9.660;2024-01-25T02:52:59;1.20;;;0.20;;
26920;SDS011;14483;47.844;9.660;2024-01-25T02:55:25;2.72;;;0.40;;
26920;SDS011;14483;47.844;9.660;2024-01-25T02:57:54;1.73;;;0.40;;
26920;SDS011;14483;47.844;9.660;2024-01-25T03:00:20;0.45;;;0.20;;
26920;SDS011;14483;47.844;9.660;2024-01-25T03:02:47;0.52;;;0.20;;
26920;SDS011;14483;47.844;9.660;2024-01-25T03:05:13;1.90;;;0.20;;
26920;SDS011;14483;47.844;9.660;2024-01-25T03:07:40;2.33;;;0.30;;
26920;SDS011;14483;47.844;9.660;2024-01-25T03:10:06;1.75;;;0.30;;
26920;SDS011;14483;47.844;9.660;2024-01-25T03:12:34;1.05;;;0.30;;
26920;SDS011;14483;47.844;9.660;2024-01-25T03:15:01;3.03;;;0.40;;
26920;SDS011;14483;47.844;9.660;2024-01-25T03:17:28;3.05;;;0.28;;
26920;SDS011;14483;47.844;9.660;2024-01-25T03:19:54;0.80;;;0.50;;
26920;SDS011;14483;47.844;9.660;2024-01-25T03:22:20;1.23;;;0.40;;
26920;SDS011;14483;47.844;9.660;2024-01-25T03:24:47;2.70;;;0.47;;
26920;SDS011;14483;47.844;9.660;2024-01-25T03:27:13;0.68;;;0.22;;
26920;SDS011;14483;47.844;9.660;2024-01-25T03:29:40;1.85;;;0.30;;
26920;SDS011;14483;47.844;9.660;2024-01-25T03:32:08;2.25;;;0.35;;
26920;SDS011;14483;47.844;9.660;2024-01-25T03:34:34;1.23;;;0.20;;
26920;SDS011;14483;47.844;9.660;2024-01-25T03:37:01;1.35;;;0.30;;
26920;SDS011;14483;47.844;9.660;2024-01-25T03:39:27;4.03;;;0.85;;
26920;SDS011;14483;47.844;9.660;2024-01-25T03:41:54;1.00;;;0.30;;
26920;SDS011;14483;47.844;9.660;2024-01-25T03:44:20;2.70;;;0.35;;
26920;SDS011;14483;47.844;9.660;2024-01-25T03:46:46;1.10;;;0.30;;
26920;SDS011;14483;47.844;9.660;2024-01-25T03:49:14;4.00;;;0.40;;
26920;SDS011;14483;47.844;9.660;2024-01-25T03:51:41;2.20;;;0.32;;
26920;SDS011;14483;47.844;9.660;2024-01-25T03:54:07;0.60;;;0.28;;
26920;SDS011;14483;47.844;9.660;2024-01-25T03:56:34;2.00;;;0.30;;
26920;SDS011;14483;47.844;9.660;2024-01-25T03:59:00;2.55;;;0.30;;
26920;SDS011;14483;47.844;9.660;2024-01-25T04:01:26;0.68;;;0.20;;
26920;SDS011;14483;47.844;9.660;2024-01-25T04:03:53;1.75;;;0.20;;
26920;SDS011;14483;47.844;9.660;2024-01-25T04:06:21;2.40;;;0.32;;
26920;SDS011;14483;47.844;9.660;2024-01-25T04:08:47;2.40;;;0.20;;
26920;SDS011;14483;47.844;9.660;2024-01-25T04:11:13;3.17;;;0.38;;
26920;SDS011;14483;47.844;9.660;2024-01-25T04:13:41;0.93;;;0.30;;
26920;SDS011;14483;47.844;9.660;2024-01-25T04:16:08;1.45;;;0.30;;
26920;SDS011;14483;47.844;9.660;2024-01-25T04:18:34;2.00;;;0.50;;
26920;SDS011;14483;47.844;9.660;2024-01-25T04:21:01;2.42;;;0.40;;
26920;SDS011;14483;47.844;9.660;2024-01-25T04:23:28;1.15;;;0.35;;
26920;SDS011;14483;47.844;9.660;2024-01-25T04:25:55;1.52;;;0.47;;
26920;SDS011;14483;47.844;9.660;2024-01-25T04:28:21;1.60;;;0.32;;
26920;SDS011;14483;47.844;9.660;2024-01-25T04:30:48;1.08;;;0.20;;
26920;SDS011;14483;47.844;9.660;2024-01-25T04:33:14;0.47;;;0.20;;
26920;SDS011;14483;47.844;9.660;2024-01-25T04:35:40;5.20;;;0.50;;
26920;SDS011;14483;47.844;9.660;2024-01-25T04:38:07;2.00;;;0.45;;
26920;SDS011;14483;47.844;9.660;2024-01-25T04:40:34;3.92;;;0.40;;
26920;SDS011;14483;47.844;9.660;2024-01-25T04:43:01;1.13;;;0.28;;
26920;SDS011;14483;47.844;9.660;2024-01-25T04:45:27;3.50;;;0.47;;
26920;SDS011;14483;47.844;9.660;2024-01-25T04:47:54;1.52;;;0.40;;
26920;SDS011;14483;47.844;9.660;2024-01-25T04:50:20;2.88;;;0.50;;
26920;SDS011;14483;47.844;9.660;2024-01-25T04:52:46;4.43;;;0.65;;
26920;SDS011;14483;47.844;9.660;2024-01-25T04:55:13;2.25;;;0.60;;
26920;SDS011;14483;47.844;9.660;2024-01-25T04:57:40;1.95;;;0.40;;
26920;SDS011;14483;47.844;9.660;2024-01-25T05:00:08;0.75;;;0.20;;
26920;SDS011;14483;47.844;9.660;2024-01-25T05:02:35;2.05;;;0.30;;
26920;SDS011;14483;47.844;9.660;2024-01-25T05:05:01;1.55;;;0.40;;
26920;SDS011;14483;47.844;9.660;2024-01-25T05:07:28;3.70;;;0.38;;
26920;SDS011;14483;47.844;9.660;2024-01-25T05:09:54;1.23;;;0.60;;
26920;SDS011;14483;47.844;9.660;2024-01-25T05:12:19;2.60;;;0.30;;
26920;SDS011;14483;47.844;9.660;2024-01-25T05:14:47;1.30;;;0.30;;
26920;SDS011;14483;47.844;9.660;2024-01-25T05:17:13;2.55;;;0.50;;
26920;SDS011;14483;47.844;9.660;2024-01-25T05:19:40;0.90;;;0.30;;
26920;SDS011;14483;47.844;9.660;2024-01-25T05:22:06;1.65;;;0.43;;
26920;SDS011;14483;47.844;9.660;2024-01-25T05:24:32;4.40;;;0.50;;
26920;SDS011;14483;47.844;9.660;2024-01-25T05:26:59;2.47;;;0.55;;
26920;SDS011;14483;47.844;9.660;2024-01-25T05:29:25;2.08;;;0.50;;
26920;SDS011;14483;47.844;9.660;2024-01-25T05:31:53;2.72;;;0.32;;
26920;SDS011;14483;47.844;9.660;2024-01-25T05:34:19;2.78;;;0.40;;
26920;SDS011;14483;47.844;9.660;2024-01-25T05:36:45;2.47;;;0.60;;
26920;SDS011;14483;47.844;9.660;2024-01-25T05:39:12;1.95;;;0.50;;
26920;SDS011;14483;47.844;9.660;2024-01-25T05:41:39;1.83;;;0.57;;
26920;SDS011;14483;47.844;9.660;2024-01-25T05:44:05;2.33;;;0.55;;
26920;SDS011;14483;47.844;9.660;2024-01-25T05:46:32;4.68;;;0.60;;
26920;SDS011;14483;47.844;9.660;2024-01-25T05:48:59;3.05;;;0.70;;
26920;SDS011;14483;47.844;9.660;2024-01-25T05:51:26;2.65;;;0.55;;
26920;SDS011;14483;47.844;9.660;2024-01-25T05:53:52;4.63;;;0.77;;
26920;SDS011;14483;47.844;9.660;2024-01-25T05:56:19;25.75;;;6.63;;
26920;SDS011;14483;47.844;9.660;2024-01-25T05:58:45;66.57;;;19.77;;
26920;SDS011;14483;47.844;9.660;2024-01-25T06:01:12;68.18;;;23.17;;
26920;SDS011;14483;47.844;9.660;2024-01-25T06:03:38;36.00;;;13.43;;
26920;SDS011;14483;47.844;9.660;2024-01-25T06:06:06;12.77;;;5.40;;
26920;SDS011;14483;47.844;9.660;2024-01-25T06:08:33;8.73;;;3.92;;
26920;SDS011;14483;47.844;9.660;2024-01-25T06:11:00;6.85;;;2.83;;
26920;SDS011;14483;47.844;9.660;2024-01-25T06:13:26;8.43;;;3.42;;
26920;SDS011;14483;47.844;9.660;2024-01-25T06:15:53;4.82;;;2.45;;
26920;SDS011;14483;47.844;9.660;2024-01-25T06:18:19;5.80;;;1.75;;
26920;SDS011;14483;47.844;9.660;2024-01-25T06:20:45;4.03;;;1.20;;
26920;SDS011;14483;47.844;9.660;2024-01-25T06:23:13;3.42;;;1.08;;
26920;SDS011;14483;47.844;9.660;2024-01-25T06:25:39;2.63;;;0.90;;
26920;SDS011;14483;47.844;9.660;2024-01-25T06:28:06;1.40;;;0.70;;
26920;SDS011;14483;47.844;9.660;2024-01-25T06:30:32;3.20;;;1.25;;
26920;SDS011;14483;47.844;9.660;2024-01-25T06:32:58;3.20;;;1.30;;
26920;SDS011;14483;47.844;9.660;2024-01-25T06:35:25;5.65;;;0.90;;
26920;SDS011;14483;47.844;9.660;2024-01-25T06:37:51;2.60;;;1.02;;
26920;SDS011;14483;47.844;9.660;2024-01-25T06:40:19;1.95;;;0.82;;
26920;SDS011;14483;47.844;9.660;2024-01-25T06:42:45;1.85;;;0.50;;
26920;SDS011;14483;47.844;9.660;2024-01-25T06:45:11;3.17;;;1.00;;
26920;SDS011;14483;47.844;9.660;2024-01-25T06:47:38;1.98;;;0.80;;
26920;SDS011;14483;47.844;9.660;2024-01-25T06:50:05;3.28;;;0.88;;
26920;SDS011;14483;47.844;9.660;2024-01-25T06:52:32;2.75;;;0.80;;
26920;SDS011;14483;47.844;9.660;2024-01-25T06:54:59;4.90;;;0.90;;
26920;SDS011;14483;47.844;9.660;2024-01-25T06:57:26;2.15;;;1.10;;
26920;SDS011;14483;47.844;9.660;2024-01-25T06:59:53;4.47;;;1.15;;
26920;SDS011;14483;47.844;9.660;2024-01-25T07:02:19;4.15;;;1.77;;
26920;SDS011;14483;47.844;9.660;2024-01-25T07:04:46;5.82;;;2.70;;
26920;SDS011;14483;47.844;9.660;2024-01-25T07:07:12;6.47;;;3.55;;
26920;SDS011;14483;47.844;9.660;2024-01-25T07:09:38;10.18;;;5.75;;
26920;SDS011;14483;47.844;9.660;2024-01-25T07:12:05;14.05;;;7.97;;
26920;SDS011;14483;47.844;9.660;2024-01-25T07:14:33;19.02;;;11.02;;
26920;SDS011;14483;47.844;9.660;2024-01-25T07:16:59;22.27;;;11.90;;
26920;SDS011;14483;47.844;9.660;2024-01-25T07:19:25;16.42;;;9.65;;
26920;SDS011;14483;47.844;9.660;2024-01-25T07:21:52;12.63;;;8.20;;
26920;SDS011;14483;47.844;9.660;2024-01-25T07:24:18;11.88;;;6.15;;
26920;SDS011;14483;47.844;9.660;2024-01-25T07:26:44;9.85;;;5.32;;
26920;SDS011;14483;47.844;9.660;2024-01-25T07:29:11;10.45;;;4.32;;
26920;SDS011;14483;47.844;9.660;2024-01-25T07:31:38;2.95;;;1.55;;
26920;SDS011;14483;47.844;9.660;2024-01-25T07:34:05;4.00;;;1.30;;
26920;SDS011;14483;47.844;9.660;2024-01-25T07:36:31;1.92;;;0.90;;
26920;SDS011;14483;47.844;9.660;2024-01-25T07:38:58;2.58;;;1.00;;
26920;SDS011;14483;47.844;9.660;2024-01-25T07:41:24;1.70;;;1.25;;
26920;SDS011;14483;47.844;9.660;2024-01-25T07:43:50;2.95;;;1.63;;
26920;SDS011;14483;47.844;9.660;2024-01-25T07:46:20;3.42;;;1.48;;
26920;SDS011;14483;47.844;9.660;2024-01-25T07:48:48;2.30;;;1.70;;
26920;SDS011;14483;47.844;9.660;2024-01-25T07:51:14;5.07;;;2.28;;
26920;SDS011;14483;47.844;9.660;2024-01-25T07:53:40;2.95;;;2.00;;
26920;SDS011;14483;47.844;9.660;2024-01-25T07:56:07;4.55;;;2.75;;
26920;SDS011;14483;47.844;9.660;2024-01-25T07:58:35;3.92;;;2.60;;
26920;SDS011;14483;47.844;9.660;2024-01-25T08:01:02;4.95;;;2.13;;
26920;SDS011;14483;47.844;9.660;2024-01-25T08:03:29;3.17;;;1.90;;
26920;SDS011;14483;47.844;9.660;2024-01-25T08:05:56;2.45;;;1.58;;
26920;SDS011;14483;47.844;9.660;2024-01-25T08:08:23;3.03;;;1.42;;
26920;SDS011;14483;47.844;9.660;2024-01-25T08:10:49;2.45;;;0.82;;
26920;SDS011;14483;47.844;9.660;2024-01-25T08:13:15;2.80;;;1.35;;
26920;SDS011;14483;47.844;9.660;2024-01-25T08:15:42;1.70;;;0.90;;
26920;SDS011;14483;47.844;9.660;2024-01-25T08:18:08;3.42;;;0.85;;
26920;SDS011;14483;47.844;9.660;2024-01-25T08:20:35;2.15;;;0.80;;
26920;SDS011;14483;47.844;9.660;2024-01-25T08:23:03;1.92;;;0.82;;
26920;SDS011;14483;47.844;9.660;2024-01-25T08:25:29;3.75;;;0.95;;
26920;SDS011;14483;47.844;9.660;2024-01-25T08:27:56;2.67;;;1.00;;
26920;SDS011;14483;47.844;9.660;2024-01-25T08:30:22;3.00;;;0.90;;
26920;SDS011;14483;47.844;9.660;2024-01-25T08:32:49;1.95;;;1.08;;
26920;SDS011;14483;47.844;9.660;2024-01-25T08:35:16;2.33;;;1.27;;
26920;SDS011;14483;47.844;9.660;2024-01-25T08:37:43;1.90;;;0.70;;
26920;SDS011;14483;47.844;9.660;2024-01-25T08:40:11;1.90;;;0.93;;
26920;SDS011;14483;47.844;9.660;2024-01-25T08:42:38;4.60;;;1.42;;
26920;SDS011;14483;47.844;9.660;2024-01-25T08:45:05;4.88;;;1.77;;
26920;SDS011;14483;47.844;9.660;2024-01-25T08:47:34;5.32;;;1.20;;
26920;SDS011;14483;47.844;9.660;2024-01-25T08:50:00;4.47;;;1.00;;
26920;SDS011;14483;47.844;9.660;2024-01-25T08:52:26;3.85;;;1.40;;
26920;SDS011;14483;47.844;9.660;2024-01-25T08:54:53;1.88;;;0.95;;
26920;SDS011;14483;47.844;9.660;2024-01-25T08:57:21;3.25;;;1.20;;
26920;SDS011;14483;47.844;9.660;2024-01-25T08:59:47;3.28;;;1.20;;
26920;SDS011;14483;47.844;9.660;2024-01-25T09:02:13;2.90;;;0.70;;
26920;SDS011;14483;47.844;9.660;2024-01-25T09:04:40;3.38;;;0.90;;
26920;SDS011;14483;47.844;9.660;2024-01-25T09:07:08;3.75;;;1.17;;
26920;SDS011;14483;47.844;9.660;2024-01-25T09:09:34;4.18;;;1.08;;
26920;SDS011;14483;47.844;9.660;2024-01-25T09:12:00;3.13;;;0.73;;
26920;SDS011;14483;47.844;9.660;2024-01-25T09:14:28;2.00;;;0.82;;
26920;SDS011;14483;47.844;9.660;2024-01-25T09:16:57;1.60;;;0.55;;
26920;SDS011;14483;47.844;9.660;2024-01-25T09:19:23;3.92;;;0.60;;
26920;SDS011;14483;47.844;9.660;2024-01-25T09:21:49;1.27;;;0.60;;
26920;SDS011;14483;47.844;9.660;2024-01-25T09:24:16;1.42;;;0.40;;
26920;SDS011;14483;47.844;9.660;2024-01-25T09:26:42;1.27;;;0.30;;
26920;SDS011;14483;47.844;9.660;2024-01-25T09:29:09;1.17;;;0.50;;
26920;SDS011;14483;47.844;9.660;2024-01-25T09:31:37;0.88;;;0.40;;
26920;SDS011;14483;47.844;9.660;2024-01-25T09:34:03;0.63;;;0.30;;
26920;SDS011;14483;47.844;9.660;2024-01-25T09:36:29;1.83;;;0.43;;
26920;SDS011;14483;47.844;9.660;2024-01-25T09:38:56;1.02;;;0.45;;
26920;SDS011;14483;47.844;9.660;2024-01-25T09:41:22;0.25;;;0.17;;
26920;SDS011;14483;47.844;9.660;2024-01-25T09:43:48;2.25;;;0.50;;
26920;SDS011;14483;47.844;9.660;2024-01-25T09:46:15;0.75;;;0.47;;
26920;SDS011;14483;47.844;9.660;2024-01-25T09:48:43;0.28;;;0.17;;
26920;SDS011;14483;47.844;9.660;2024-01-25T09:51:11;1.13;;;0.20;;
26920;SDS011;14483;47.844;9.660;2024-01-25T09:53:38;1.25;;;0.38;;
26920;SDS011;14483;47.844;9.660;2024-01-25T09:56:05;0.55;;;0.30;;
26920;SDS011;14483;47.844;9.660;2024-01-25T09:58:35;0.73;;;0.20;;
26920;SDS011;14483;47.844;9.660;2024-01-25T10:01:02;2.50;;;0.40;;
26920;SDS011;14483;47.844;9.660;2024-01-25T10:03:29;1.50;;;0.70;;
26920;SDS011;14483;47.844;9.660;2024-01-25T10:05:57;3.05;;;0.60;;
26920;SDS011;14483;47.844;9.660;2024-01-25T10:08:23;2.22;;;0.60;;
26920;SDS011;14483;47.844;9.660;2024-01-25T10:10:49;1.95;;;0.70;;
26920;SDS011;14483;47.844;9.660;2024-01-25T10:13:18;1.20;;;0.57;;
26920;SDS011;14483;47.844;9.660;2024-01-25T10:15:45;3.20;;;0.90;;
26920;SDS011;14483;47.844;9.660;2024-01-25T10:18:12;2.05;;;0.90;;
26920;SDS011;14483;47.844;9.660;2024-01-25T10:20:39;2.22;;;0.85;;
26920;SDS011;14483;47.844;9.660;2024-01-25T10:23:07;3.22;;;0.90;;
26920;SDS011;14483;47.844;9.660;2024-01-25T10:25:34;3.13;;;0.85;;
26920;SDS011;14483;47.844;9.660;2024-01-25T10:28:00;2.78;;;0.80;;
26920;SDS011;14483;47.844;9.660;2024-01-25T10:30:29;1.50;;;0.82;;
26920;SDS011;14483;47.844;9.660;2024-01-25T10:32:57;1.75;;;0.60;;
26920;SDS011;14483;47.844;9.660;2024-01-25T10:35:24;1.73;;;0.70;;
26920;SDS011;14483;47.844;9.660;2024-01-25T10:37:51;2.03;;;0.50;;
26920;SDS011;14483;47.844;9.660;2024-01-25T10:40:19;5.65;;;0.80;;
26920;SDS011;14483;47.844;9.660;2024-01-25T10:42:45;3.17;;;0.80;;
26920;SDS011;14483;47.844;9.660;2024-01-25T10:45:12;2.30;;;0.75;;
26920;SDS011;14483;47.844;9.660;2024-01-25T10:47:39;2.38;;;0.80;;
26920;SDS011;14483;47.844;9.660;2024-01-25T10:50:06;2.50;;;0.63;;
26920;SDS011;14483;47.844;9.660;2024-01-25T10:52:34;2.05;;;0.90;;
26920;SDS011;14483;47.844;9.660;2024-01-25T10:55:01;1.77;;;0.70;;
26920;SDS011;14483;47.844;9.660;2024-01-25T10:57:35;9.10;;;1.00;;
26920;SDS011;14483;47.844;9.660;2024-01-25T11:00:03;7.88;;;1.80;;
26920;SDS011;14483;47.844;9.660;2024-01-25T11:02:34;0.55;;;0.40;;
26920;SDS011;14483;47.844;9.660;2024-01-25T11:05:00;1.50;;;0.50;;
26920;SDS011;14483;47.844;9.660;2024-01-25T11:07:28;2.80;;;0.63;;
26920;SDS011;14483;47.844;9.660;2024-01-25T11:09:54;1.25;;;0.43;;
26920;SDS011;14483;47.844;9.660;2024-01-25T11:12:21;2.45;;;0.60;;
26920;SDS011;14483;47.844;9.660;2024-01-25T11:14:54;1.52;;;0.50;;
26920;SDS011;14483;47.844;9.660;2024-01-25T11:17:21;2.85;;;0.68;;
26920;SDS011;14483;47.844;9.660;2024-01-25T11:19:48;1.88;;;0.63;;
26920;SDS011;14483;47.844;9.660;2024-01-25T11:22:15;4.63;;;1.10;;
26920;SDS011;14483;47.844;9.660;2024-01-25T11:24:41;1.48;;;0.50;;
26920;SDS011;14483;47.844;9.660;2024-01-25T11:27:08;3.17;;;0.57;;
26920;SDS011;14483;47.844;9.660;2024-01-25T11:29:35;3.50;;;0.35;;
26920;SDS011;14483;47.844;9.660;2024-01-25T11:32:03;2.10;;;0.57;;
26920;SDS011;14483;47.844;9.660;2024-01-25T11:34:30;1.60;;;0.50;;
26920;SDS011;14483;47.844;9.660;2024-01-25T11:36:56;2.25;;;0.88;;
26920;SDS011;14483;47.844;9.660;2024-01-25T11:39:23;1.13;;;0.50;;
26920;SDS011;14483;47.844;9.660;2024-01-25T11:41:50;1.65;;;0.70;;
26920;SDS011;14483;47.844;9.660;2024-01-25T11:44:17;1.35;;;0.52;;
26920;SDS011;14483;47.844;9.660;2024-01-25T11:46:43;1.05;;;0.30;;
26920;SDS011;14483;47.844;9.660;2024-01-25T11:49:11;3.53;;;0.40;;
26920;SDS011;14483;47.844;9.660;2024-01-25T11:51:37;1.45;;;0.55;;
26920;SDS011;14483;47.844;9.660;2024-01-25T11:54:04;6.15;;;0.82;;
26920;SDS011;14483;47.844;9.660;2024-01-25T11:56:32;1.02;;;0.40;;
26920;SDS011;14483;47.844;9.660;2024-01-25T11:58:59;1.50;;;0.30;;
26920;SDS011;14483;47.844;9.660;2024-01-25T12:01:26;2.47;;;0.40;;
26920;SDS011;14483;47.844;9.660;2024-01-25T12:03:53;4.30;;;0.40;;
26920;SDS011;14483;47.844;9.660;2024-01-25T12:06:21;1.80;;;0.50;;
26920;SDS011;14483;47.844;9.660;2024-01-25T12:08:47;2.85;;;0.30;;
26920;SDS011;14483;47.844;9.660;2024-01-25T12:11:16;3.22;;;0.30;;
26920;SDS011;14483;47.844;9.660;2024-01-25T12:13:43;1.42;;;0.52;;
26920;SDS011;14483;47.844;9.660;2024-01-25T12:16:10;2.22;;;0.40;;
26920;SDS011;14483;47.844;9.660;2024-01-25T12:18:37;1.35;;;0.40;;
26920;SDS011;14483;47.844;9.660;2024-01-25T12:21:04;0.38;;;0.20;;
26920;SDS011;14483;47.844;9.660;2024-01-25T12:23:32;1.17;;;0.40;;
26920;SDS011;14483;47.844;9.660;2024-01-25T12:25:59;2.95;;;0.60;;
26920;SDS011;14483;47.844;9.660;2024-01-25T12:28:26;1.48;;;0.80;;
26920;SDS011;14483;47.844;9.660;2024-01-25T12:30:52;1.55;;;0.60;;
26920;SDS011;14483;47.844;9.660;2024-01-25T12:33:19;1.95;;;0.75;;
26920;SDS011;14483;47.844;9.660;2024-01-25T12:35:45;2.88;;;0.73;;
26920;SDS011;14483;47.844;9.660;2024-01-25T12:38:12;2.40;;;0.90;;
26920;SDS011;14483;47.844;9.660;2024-01-25T12:40:39;6.00;;;0.70;;
26920;SDS011;14483;47.844;9.660;2024-01-25T12:43:07;1.65;;;0.60;;
26920;SDS011;14483;47.844;9.660;2024-01-25T12:45:34;1.20;;;0.65;;
26920;SDS011;14483;47.844;9.660;2024-01-25T12:48:00;2.78;;;0.90;;
26920;SDS011;14483;47.844;9.660;2024-01-25T12:50:27;2.38;;;0.90;;
26920;SDS011;14483;47.844;9.660;2024-01-25T12:52:54;1.98;;;0.70;;
26920;SDS011;14483;47.844;9.660;2024-01-25T12:55:20;4.65;;;1.52;;
26920;SDS011;14483;47.844;9.660;2024-01-25T12:57:48;2.35;;;0.85;;
26920;SDS011;14483;47.844;9.660;2024-01-25T13:00:15;2.40;;;0.88;;
26920;SDS011;14483;47.844;9.660;2024-01-25T13:02:41;1.73;;;0.63;;
26920;SDS011;14483;47.844;9.660;2024-01-25T13:05:08;1.95;;;0.90;;
26920;SDS011;14483;47.844;9.660;2024-01-25T13:07:34;2.25;;;0.80;;
26920;SDS011;14483;47.844;9.660;2024-01-25T13:10:00;1.80;;;0.70;;
26920;SDS011;14483;47.844;9.660;2024-01-25T13:12:27;1.75;;;0.63;;
26920;SDS011;14483;47.844;9.660;2024-01-25T13:14:54;12.63;;;2.28;;
26920;SDS011;14483;47.844;9.660;2024-01-25T13:17:21;11.52;;;1.10;;
26920;SDS011;14483;47.844;9.660;2024-01-25T13:19:49;3.28;;;0.80;;
26920;SDS011;14483;47.844;9.660;2024-01-25T13:22:16;1.40;;;0.60;;
26920;SDS011;14483;47.844;9.660;2024-01-25T13:24:46;2.40;;;0.65;;
26920;SDS011;14483;47.844;9.660;2024-01-25T13:27:12;9.93;;;1.40;;
26920;SDS011;14483;47.844;9.660;2024-01-25T13:29:38;3.08;;;0.63;;
26920;SDS011;14483;47.844;9.660;2024-01-25T13:32:07;6.03;;;1.08;;
26920;SDS011;14483;47.844;9.660;2024-01-25T13:34:33;2.08;;;0.47;;
26920;SDS011;14483;47.844;9.660;2024-01-25T13:37:00;1.90;;;0.50;;
26920;SDS011;14483;47.844;9.660;2024-01-25T13:39:28;1.10;;;0.30;;
26920;SDS011;14483;47.844;9.660;2024-01-25T13:41:54;1.67;;;0.43;;
26920;SDS011;14483;47.844;9.660;2024-01-25T13:44:21;1.23;;;0.40;;
26920;SDS011;14483;47.844;9.660;2024-01-25T13:46:48;1.17;;;0.30;;
26920;SDS011;14483;47.844;9.660;2024-01-25T13:49:16;0.77;;;0.30;;
26920;SDS011;14483;47.844;9.660;2024-01-25T13:51:43;1.75;;;0.38;;
26920;SDS011;14483;47.844;9.660;2024-01-25T13:54:09;0.82;;;0.30;;
26920;SDS011;14483;47.844;9.660;2024-01-25T13:56:35;0.77;;;0.30;;
26920;SDS011;14483;47.844;9.660;2024-01-25T13:59:03;1.33;;;0.40;;
26920;SDS011;14483;47.844;9.660;2024-01-25T14:01:29;3.22;;;0.75;;
26920;SDS011;14483;47.844;9.660;2024-01-25T14:03:55;4.55;;;0.60;;
26920;SDS011;14483;47.844;9.660;2024-01-25T14:06:23;1.73;;;0.50;;
26920;SDS011;14483;47.844;9.660;2024-01-25T14:08:50;1.60;;;0.47;;
26920;SDS011;14483;47.844;9.660;2024-01-25T14:11:16;2.97;;;0.95;;
26920;SDS011;14483;47.844;9.660;2024-01-25T14:13:42;0.77;;;0.50;;
26920;SDS011;14483;47.844;9.660;2024-01-25T14:16:09;1.33;;;0.50;;
26920;SDS011;14483;47.844;9.660;2024-01-25T14:18:41;1.00;;;0.60;;
26920;SDS011;14483;47.844;9.660;2024-01-25T14:21:08;3.15;;;0.57;;
26920;SDS011;14483;47.844;9.660;2024-01-25T14:23:36;1.27;;;0.60;;
26920;SDS011;14483;47.844;9.660;2024-01-25T14:26:02;1.95;;;0.60;;
26920;SDS011;14483;47.844;9.660;2024-01-25T14:28:29;2.28;;;0.60;;
26920;SDS011;14483;47.844;9.660;2024-01-25T14:30:55;1.25;;;0.57;;
26920;SDS011;14483;47.844;9.660;2024-01-25T14:33:22;3.15;;;0.85;;
26920;SDS011;14483;47.844;9.660;2024-01-25T14:35:48;2.92;;;0.50;;
26920;SDS011;14483;47.844;9.660;2024-01-25T14:38:14;0.98;;;0.50;;
26920;SDS011;14483;47.844;9.660;2024-01-25T14:40:42;2.05;;;0.40;;
26920;SDS011;14483;47.844;9.660;2024-01-25T14:43:08;1.63;;;0.75;;
26920;SDS011;14483;47.844;9.660;2024-01-25T14:45:35;1.20;;;0.50;;